createdAt,value
2018-12-01T00:00:34.528Z,15.53
2018-12-01T00:03:04.095Z,18.67
2018-12-01T00:05:33.425Z,16.77
2018-12-01T00:08:02.737Z,16.40
2018-12-01T00:10:31.886Z,17.10
2018-12-01T00:13:01.221Z,18.30
2018-12-01T00:15:30.921Z,17.17
2018-12-01T00:18:00.096Z,18.60
2018-12-01T00:20:31.098Z,18.90
2018-12-01T00:23:00.793Z,16.23
2018-12-01T00:25:30.439Z,17.27
2018-12-01T00:27:59.588Z,17.13
2018-12-01T00:30:28.778Z,17.33
2018-12-01T00:32:58.048Z,17.10
2018-12-01T00:35:27.185Z,17.27
2018-12-01T00:37:56.571Z,16.33
2018-12-01T00:40:25.725Z,17.03
2018-12-01T00:42:54.936Z,17.07
2018-12-01T00:45:24.367Z,15.87
2018-12-01T00:47:54.351Z,17.33
2018-12-01T00:50:24.358Z,15.87
2018-12-01T00:52:54.078Z,16.07
2018-12-01T00:55:23.427Z,17.27
2018-12-01T00:57:52.668Z,16.90
2018-12-01T01:00:23.927Z,17.00
2018-12-01T01:02:55.799Z,16.67
2018-12-01T01:05:27.532Z,18.20
2018-12-01T01:07:57.742Z,18.20
2018-12-01T01:10:29.048Z,16.07
2018-12-01T01:12:58.236Z,18.97
2018-12-01T01:15:27.444Z,17.47
2018-12-01T01:17:56.813Z,16.23
2018-12-01T01:20:26.087Z,17.90
2018-12-01T01:22:55.310Z,17.20
2018-12-01T01:25:24.459Z,17.23
2018-12-01T01:27:54.090Z,18.43
2018-12-01T01:30:24.360Z,17.70
2018-12-01T01:33:57.234Z,16.27
2018-12-01T01:36:27.056Z,17.63
2018-12-01T01:38:56.267Z,17.67
2018-12-01T01:41:25.454Z,16.70
2018-12-01T01:43:54.628Z,18.17
2018-12-01T01:46:24.158Z,17.23
2018-12-01T01:48:53.314Z,16.30
2018-12-01T01:51:22.541Z,16.50
2018-12-01T01:53:51.797Z,17.67
2018-12-01T01:56:21.100Z,16.07
2018-12-01T01:58:50.360Z,16.37
2018-12-01T02:01:19.527Z,16.80
2018-12-01T02:03:48.855Z,16.50
2018-12-01T02:06:18.115Z,17.10
2018-12-01T02:08:47.561Z,16.43
2018-12-01T02:11:16.863Z,17.63
2018-12-01T02:13:46.080Z,18.30
2018-12-01T02:16:15.298Z,17.90
2018-12-01T02:18:44.412Z,19.07
2018-12-01T02:21:13.829Z,16.70
2018-12-01T02:23:42.992Z,16.40
2018-12-01T02:26:12.213Z,16.50
2018-12-01T02:28:41.449Z,17.00
2018-12-01T02:31:10.721Z,17.00
2018-12-01T02:33:39.867Z,15.57
2018-12-01T02:36:08.997Z,15.57
2018-12-01T02:38:38.657Z,15.07
2018-12-01T02:41:07.925Z,16.80
2018-12-01T02:43:37.037Z,17.73
2018-12-01T02:46:17.315Z,16.30
2018-12-01T02:48:46.924Z,17.00
2018-12-01T02:51:16.110Z,16.30
2018-12-01T02:53:45.279Z,17.13
2018-12-01T02:56:14.479Z,15.43
2018-12-01T02:58:43.686Z,14.97
2018-12-01T03:01:12.932Z,15.17
2018-12-01T03:03:42.197Z,16.23
2018-12-01T03:06:11.351Z,16.00
2018-12-01T03:08:40.735Z,16.97
2018-12-01T03:11:09.912Z,16.23
2018-12-01T03:13:39.026Z,15.77
2018-12-01T03:16:08.172Z,15.77
2018-12-01T03:18:37.311Z,16.30
2018-12-01T03:21:06.944Z,15.50
2018-12-01T03:23:36.202Z,16.43
2018-12-01T03:26:06.614Z,18.50
2018-12-01T03:28:36.230Z,17.93
2018-12-01T03:31:05.534Z,18.00
2018-12-01T03:33:34.872Z,17.50
2018-12-01T03:36:04.040Z,17.23
2018-12-01T03:38:33.181Z,15.73
2018-12-01T03:41:02.580Z,16.57
2018-12-01T03:43:31.718Z,16.63
2018-12-01T03:46:01.061Z,16.53
2018-12-01T03:48:30.549Z,15.53
2018-12-01T03:50:59.705Z,15.53
2018-12-01T03:53:28.897Z,15.67
2018-12-01T03:55:58.243Z,15.53
2018-12-01T03:58:27.413Z,15.80
2018-12-01T04:00:56.747Z,15.77
2018-12-01T04:03:25.886Z,16.97
2018-12-01T04:05:55.064Z,17.63
2018-12-01T04:08:24.253Z,16.33
2018-12-01T04:10:54.700Z,15.33
2018-12-01T04:13:24.095Z,16.13
2018-12-01T04:15:53.251Z,15.70
2018-12-01T04:18:22.544Z,14.50
2018-12-01T04:20:51.684Z,13.83
2018-12-01T04:23:20.833Z,13.50
2018-12-01T04:25:49.991Z,14.37
2018-12-01T04:28:19.423Z,13.97
2018-12-01T04:30:48.670Z,14.47
2018-12-01T04:33:17.862Z,13.17
2018-12-01T04:35:47.043Z,13.23
2018-12-01T04:38:16.238Z,14.40
2018-12-01T04:40:45.492Z,12.67
2018-12-01T04:43:14.658Z,12.70
2018-12-01T04:45:43.899Z,13.00
2018-12-01T04:48:13.125Z,13.57
2018-12-01T04:50:42.305Z,13.23
2018-12-01T04:53:11.450Z,13.83
2018-12-01T04:55:40.643Z,12.87
2018-12-01T04:58:09.919Z,12.97
2018-12-01T05:00:39.218Z,12.70
2018-12-01T05:03:08.482Z,12.67
2018-12-01T05:05:37.645Z,12.33
2018-12-01T05:08:06.773Z,13.17
2018-12-01T05:10:35.845Z,13.13
2018-12-01T05:13:05.279Z,13.40
2018-12-01T05:15:34.483Z,12.67
2018-12-01T05:18:03.817Z,13.03
2018-12-01T05:20:32.884Z,12.77
2018-12-01T05:23:02.013Z,12.90
2018-12-01T05:25:31.447Z,12.63
2018-12-01T05:28:00.566Z,11.43
2018-12-01T05:30:29.807Z,12.60
2018-12-01T05:32:59.186Z,13.00
2018-12-01T05:35:28.633Z,11.53
2018-12-01T05:37:57.949Z,11.93
2018-12-01T05:40:27.095Z,11.77
2018-12-01T05:42:56.356Z,10.43
2018-12-01T05:45:25.536Z,10.97
2018-12-01T05:47:55.147Z,11.63
2018-12-01T05:50:25.025Z,12.43
2018-12-01T05:52:56.467Z,11.40
2018-12-01T05:55:25.861Z,12.27
2018-12-01T05:57:55.037Z,12.17
2018-12-01T06:00:24.232Z,11.63
2018-12-01T06:02:53.626Z,13.87
2018-12-01T06:05:22.794Z,12.17
2018-12-01T06:07:52.051Z,12.23
2018-12-01T06:10:22.410Z,11.80
2018-12-01T06:12:52.717Z,12.50
2018-12-01T06:15:22.174Z,12.60
2018-12-01T06:17:51.378Z,12.57
2018-12-01T06:20:22.063Z,12.97
2018-12-01T06:22:51.312Z,11.80
2018-12-01T06:25:21.783Z,12.47
2018-12-01T06:27:50.937Z,11.73
2018-12-01T06:30:20.493Z,11.57
2018-12-01T06:32:50.519Z,13.47
2018-12-01T06:35:19.563Z,11.63
2018-12-01T06:37:48.655Z,12.43
2018-12-01T06:40:18.620Z,12.93
2018-12-01T06:42:47.704Z,11.53
2018-12-01T06:45:17.412Z,11.60
2018-12-01T06:47:46.534Z,11.73
2018-12-01T06:50:23.104Z,12.33
2018-12-01T06:52:53.207Z,12.63
2018-12-01T06:55:23.200Z,12.37
2018-12-01T06:57:52.278Z,12.17
2018-12-01T07:00:24.499Z,11.73
2018-12-01T07:02:54.687Z,11.73
2018-12-01T07:05:24.224Z,11.47
2018-12-01T07:07:53.638Z,11.13
2018-12-01T07:10:23.499Z,12.10
2018-12-01T07:12:55.296Z,11.87
2018-12-01T07:15:35.884Z,11.23
2018-12-01T07:18:16.394Z,11.13
2018-12-01T07:20:46.381Z,11.60
2018-12-01T07:23:17.030Z,10.77
2018-12-01T07:25:46.006Z,12.03
2018-12-01T07:28:15.272Z,11.17
2018-12-01T07:30:44.896Z,10.90
2018-12-01T07:33:14.986Z,10.70
2018-12-01T07:35:44.883Z,9.70
2018-12-01T07:38:14.844Z,10.93
2018-12-01T07:40:44.536Z,11.57
2018-12-01T07:43:14.234Z,9.70
2018-12-01T07:45:43.653Z,11.33
2018-12-01T07:48:13.261Z,10.93
2018-12-01T07:50:42.510Z,11.50
2018-12-01T07:53:12.151Z,10.43
2018-12-01T07:55:41.694Z,10.70
2018-12-01T07:58:11.135Z,11.13
2018-12-01T08:00:40.445Z,12.17
2018-12-01T08:03:09.909Z,10.83
2018-12-01T08:05:39.517Z,11.23
2018-12-01T08:08:09.841Z,9.93
2018-12-01T08:10:39.927Z,10.63
2018-12-01T08:13:09.723Z,10.33
2018-12-01T08:15:39.793Z,10.60
2018-12-01T08:18:10.071Z,11.10
2018-12-01T08:20:39.517Z,9.47
2018-12-01T08:23:08.942Z,11.00
2018-12-01T08:25:38.617Z,10.80
2018-12-01T08:28:09.876Z,10.83
2018-12-01T08:30:40.008Z,10.63
2018-12-01T08:33:09.857Z,9.87
2018-12-01T08:35:39.404Z,10.27
2018-12-01T08:38:08.926Z,10.47
2018-12-01T08:40:38.328Z,9.43
2018-12-01T08:43:07.908Z,10.43
2018-12-01T08:45:38.385Z,9.67
2018-12-01T08:48:08.634Z,11.90
2018-12-01T08:50:38.857Z,15.57
2018-12-01T08:53:08.286Z,15.40
2018-12-01T08:55:37.522Z,13.53
2018-12-01T08:58:07.137Z,14.67
2018-12-01T09:00:38.336Z,13.80
2018-12-01T09:03:12.678Z,13.33
2018-12-01T09:05:42.320Z,12.23
2018-12-01T09:08:11.970Z,11.20
2018-12-01T09:10:41.499Z,11.50
2018-12-01T09:13:10.872Z,10.83
2018-12-01T09:15:40.372Z,11.47
2018-12-01T09:18:10.000Z,10.70
2018-12-01T09:20:39.656Z,12.60
2018-12-01T09:23:09.353Z,10.57
2018-12-01T09:25:38.709Z,11.20
2018-12-01T09:28:09.227Z,12.60
2018-12-01T09:30:40.358Z,11.00
2018-12-01T09:33:10.130Z,10.60
2018-12-01T09:35:40.008Z,11.27
2018-12-01T09:38:11.676Z,10.17
2018-12-01T09:40:41.086Z,11.00
2018-12-01T09:43:10.648Z,10.73
2018-12-01T09:45:40.132Z,10.67
2018-12-01T09:48:10.358Z,9.30
2018-12-01T09:50:39.938Z,9.30
2018-12-01T09:53:09.533Z,9.20
2018-12-01T09:55:39.024Z,9.90
2018-12-01T09:58:08.521Z,8.50
2018-12-01T10:00:38.109Z,8.07
2018-12-01T10:03:08.875Z,7.97
2018-12-01T10:05:38.256Z,7.50
2018-12-01T10:08:08.199Z,7.90
2018-12-01T10:10:37.626Z,7.40
2018-12-01T10:13:07.367Z,7.37
2018-12-01T10:15:37.350Z,6.80
2018-12-01T10:18:10.257Z,6.37
2018-12-01T10:20:40.065Z,6.33
2018-12-01T10:23:10.791Z,6.83
2018-12-01T10:25:40.190Z,7.17
2018-12-01T10:28:11.093Z,6.57
2018-12-01T10:30:40.404Z,6.77
2018-12-01T10:33:09.957Z,7.37
2018-12-01T10:35:40.065Z,6.80
2018-12-01T10:38:16.434Z,6.63
2018-12-01T10:40:45.979Z,6.07
2018-12-01T10:43:15.679Z,5.97
2018-12-01T10:45:44.954Z,6.87
2018-12-01T10:48:14.842Z,6.10
2018-12-01T10:50:44.404Z,5.53
2018-12-01T10:53:14.288Z,5.97
2018-12-01T10:55:43.900Z,6.87
2018-12-01T10:58:15.640Z,6.47
2018-12-01T11:00:52.442Z,5.70
2018-12-01T11:03:27.828Z,5.87
2018-12-01T11:05:58.903Z,5.87
2018-12-01T11:08:28.340Z,5.20
2018-12-01T11:10:57.538Z,5.10
2018-12-01T11:13:27.056Z,5.13
2018-12-01T11:15:56.613Z,4.63
2018-12-01T11:18:25.993Z,5.03
2018-12-01T11:20:55.436Z,5.30
2018-12-01T11:23:25.812Z,5.30
2018-12-01T11:25:55.576Z,4.83
2018-12-01T11:28:25.089Z,4.00
2018-12-01T11:30:54.597Z,3.67
2018-12-01T11:33:23.941Z,4.53
2018-12-01T11:35:53.471Z,4.20
2018-12-01T11:38:22.837Z,3.70
2018-12-01T11:40:52.276Z,3.67
2018-12-01T11:43:22.100Z,4.33
2018-12-01T11:45:51.543Z,3.57
2018-12-01T11:48:21.064Z,3.73
2018-12-01T11:50:50.489Z,3.37
2018-12-01T11:53:19.923Z,2.90
2018-12-01T11:55:49.546Z,3.20
2018-12-01T11:58:19.181Z,3.93
2018-12-01T12:00:48.554Z,3.30
2018-12-01T12:03:17.935Z,2.90
2018-12-01T12:05:47.433Z,3.33
2018-12-01T12:08:21.209Z,2.23
2018-12-01T12:10:50.744Z,2.40
2018-12-01T12:13:20.952Z,2.60
2018-12-01T12:15:50.493Z,2.63
2018-12-01T12:18:20.092Z,2.80
2018-12-01T12:20:49.929Z,3.27
2018-12-01T12:23:19.356Z,2.50
2018-12-01T12:25:48.616Z,2.50
2018-12-01T12:28:17.996Z,2.97
2018-12-01T12:30:47.522Z,2.77
2018-12-01T12:33:17.043Z,2.97
2018-12-01T12:35:47.151Z,2.67
2018-12-01T12:38:17.054Z,2.60
2018-12-01T12:40:46.509Z,2.87
2018-12-01T12:43:15.793Z,3.30
2018-12-01T12:45:47.921Z,2.57
2018-12-01T12:48:17.681Z,2.60
2018-12-01T12:50:52.926Z,2.83
2018-12-01T12:53:17.167Z,2.20
2018-12-01T12:55:46.661Z,2.67
2018-12-01T12:58:16.391Z,2.63
2018-12-01T13:00:45.851Z,2.50
2018-12-01T13:03:15.173Z,2.63
2018-12-01T13:05:45.627Z,2.70
2018-12-01T13:08:16.394Z,2.50
2018-12-01T13:10:45.871Z,2.33
2018-12-01T13:13:15.010Z,2.43
2018-12-01T13:15:45.749Z,2.30
2018-12-01T13:18:15.616Z,2.60
2018-12-01T13:20:46.374Z,2.57
2018-12-01T13:23:15.995Z,2.53
2018-12-01T13:25:45.306Z,2.67
2018-12-01T13:28:23.588Z,2.50
2018-12-01T13:30:56.794Z,2.60
2018-12-01T13:33:26.572Z,2.47
2018-12-01T13:35:56.733Z,2.70
2018-12-01T13:38:26.131Z,2.50
2018-12-01T13:40:55.518Z,3.10
2018-12-01T13:43:25.056Z,2.60
2018-12-01T13:45:55.475Z,3.10
2018-12-01T13:48:25.414Z,2.87
2018-12-01T13:50:55.103Z,3.10
2018-12-01T13:53:24.667Z,2.97
2018-12-01T13:55:54.303Z,2.90
2018-12-01T13:58:23.836Z,2.60
2018-12-01T14:00:53.298Z,3.10
2018-12-01T14:03:22.771Z,3.70
2018-12-01T14:05:52.447Z,3.10
2018-12-01T14:08:21.812Z,3.07
2018-12-01T14:10:52.200Z,2.50
2018-12-01T14:13:21.934Z,3.17
2018-12-01T14:15:51.425Z,2.67
2018-12-01T14:18:20.857Z,2.37
2018-12-01T14:20:50.122Z,2.40
2018-12-01T14:23:19.919Z,2.53
2018-12-01T14:25:49.426Z,2.43
2018-12-01T14:28:18.813Z,2.67
2018-12-01T14:30:48.141Z,2.80
2018-12-01T14:33:17.778Z,2.37
2018-12-01T14:35:47.473Z,2.57
2018-12-01T14:38:18.564Z,2.60
2018-12-01T14:40:50.005Z,3.03
2018-12-01T14:43:19.429Z,2.83
2018-12-01T14:45:49.954Z,3.90
2018-12-01T14:48:19.778Z,3.30
2018-12-01T14:50:49.158Z,2.97
2018-12-01T14:53:19.162Z,3.17
2018-12-01T14:55:48.752Z,3.30
2018-12-01T14:58:18.469Z,3.83
2018-12-01T15:00:47.903Z,3.80
2018-12-01T15:03:17.363Z,3.27
2018-12-01T15:05:46.959Z,3.37
2018-12-01T15:08:16.185Z,3.73
2018-12-01T15:10:45.725Z,3.40
2018-12-01T15:13:14.968Z,3.00
2018-12-01T15:15:44.419Z,3.47
2018-12-01T15:18:14.026Z,3.80
2018-12-01T15:20:43.520Z,3.50
2018-12-01T15:23:12.702Z,3.30
2018-12-01T15:25:42.108Z,3.00
2018-12-01T15:28:11.255Z,3.40
2018-12-01T15:30:40.451Z,3.30
2018-12-01T15:33:14.700Z,3.40
2018-12-01T15:35:47.234Z,3.57
2018-12-01T15:38:16.592Z,3.73
2018-12-01T15:40:47.238Z,2.93
2018-12-01T15:43:17.074Z,3.50
2018-12-01T15:45:45.362Z,3.23
2018-12-01T15:48:14.784Z,3.20
2018-12-01T15:50:44.348Z,3.43
2018-12-01T15:53:14.651Z,6.30
2018-12-01T15:55:43.883Z,5.80
2018-12-01T15:58:13.020Z,5.87
2018-12-01T16:00:43.128Z,7.23
2018-12-01T16:03:12.278Z,5.53
2018-12-01T16:05:41.478Z,5.37
2018-12-01T16:08:11.278Z,5.20
2018-12-01T16:10:40.471Z,4.30
2018-12-01T16:13:14.121Z,3.23
2018-12-01T16:15:45.115Z,3.67
2018-12-01T16:18:14.368Z,3.50
2018-12-01T16:20:43.734Z,4.03
2018-12-01T16:23:12.804Z,4.57
2018-12-01T16:25:42.134Z,5.20
2018-12-01T16:28:11.492Z,5.57
2018-12-01T16:30:44.859Z,5.57
2018-12-01T16:33:17.170Z,5.40
2018-12-01T16:35:46.379Z,4.90
2018-12-01T16:38:18.125Z,4.30
2018-12-01T16:40:57.400Z,4.13
2018-12-01T16:43:27.768Z,3.97
2018-12-01T16:46:00.908Z,3.87
2018-12-01T16:48:31.215Z,4.53
2018-12-01T16:51:00.315Z,4.30
2018-12-01T16:53:29.471Z,4.97
2018-12-01T16:55:58.617Z,3.67
2018-12-01T16:58:27.736Z,4.50
2018-12-01T17:00:59.965Z,4.57
2018-12-01T17:03:29.060Z,4.10
2018-12-01T17:06:01.083Z,3.87
2018-12-01T17:08:30.294Z,3.83
2018-12-01T17:10:59.392Z,4.07
2018-12-01T17:13:28.728Z,4.43
2018-12-01T17:15:57.959Z,5.23
2018-12-01T17:18:27.236Z,4.27
2018-12-01T17:20:56.439Z,4.10
2018-12-01T17:23:25.589Z,3.93
2018-12-01T17:25:55.145Z,4.27
2018-12-01T17:28:24.269Z,4.10
2018-12-01T17:30:53.365Z,3.90
2018-12-01T17:33:22.535Z,4.30
2018-12-01T17:35:51.631Z,4.23
2018-12-01T17:38:21.658Z,4.13
2018-12-01T17:41:24.402Z,3.87
2018-12-01T17:43:58.531Z,4.40
2018-12-01T17:46:27.690Z,4.13
2018-12-01T17:48:56.813Z,3.80
2018-12-01T17:51:25.932Z,4.27
2018-12-01T17:53:58.237Z,4.63
2018-12-01T17:56:27.409Z,5.23
2018-12-01T17:58:56.569Z,5.53
2018-12-01T18:01:25.897Z,5.43
2018-12-01T18:03:55.049Z,5.33
2018-12-01T18:06:24.272Z,5.13
2018-12-01T18:08:53.473Z,5.67
2018-12-01T18:11:22.659Z,4.63
2018-12-01T18:13:51.850Z,4.87
2018-12-01T18:16:21.267Z,5.93
2018-12-01T18:18:50.531Z,5.00
2018-12-01T18:21:19.661Z,5.00
2018-12-01T18:23:49.105Z,5.27
2018-12-01T18:26:18.354Z,4.67
2018-12-01T18:28:49.379Z,6.13
2018-12-01T18:31:20.534Z,5.13
2018-12-01T18:33:58.216Z,5.60
2018-12-01T18:36:27.331Z,5.53
2018-12-01T18:38:56.878Z,5.00
2018-12-01T18:41:26.230Z,5.60
2018-12-01T18:43:55.336Z,6.03
2018-12-01T18:46:24.875Z,5.40
2018-12-01T18:48:54.019Z,5.33
2018-12-01T18:51:23.344Z,5.53
2018-12-01T18:53:52.446Z,6.30
2018-12-01T18:56:21.598Z,6.00
2018-12-01T18:58:50.667Z,6.20
2018-12-01T19:01:19.803Z,6.23
2018-12-01T19:03:48.963Z,6.20
2018-12-01T19:06:18.152Z,6.33
2018-12-01T19:08:47.279Z,6.23
2018-12-01T19:11:16.425Z,5.87
2018-12-01T19:13:45.557Z,5.57
2018-12-01T19:16:14.801Z,5.73
2018-12-01T19:18:43.906Z,5.70
2018-12-01T19:21:13.056Z,6.43
2018-12-01T19:23:42.249Z,6.10
2018-12-01T19:26:11.505Z,5.93
2018-12-01T19:28:40.806Z,5.87
2018-12-01T19:31:10.022Z,6.33
2018-12-01T19:33:39.138Z,5.00
2018-12-01T19:36:08.229Z,5.37
2018-12-01T19:38:37.367Z,5.80
2018-12-01T19:41:06.609Z,5.73
2018-12-01T19:43:35.722Z,5.20
2018-12-01T19:46:04.890Z,5.30
2018-12-01T19:48:34.051Z,5.33
2018-12-01T19:51:03.319Z,5.77
2018-12-01T19:53:34.553Z,5.50
2018-12-01T19:56:03.995Z,5.73
2018-12-01T19:58:33.190Z,5.37
2018-12-01T20:01:02.363Z,5.20
2018-12-01T20:03:32.388Z,5.63
2018-12-01T20:06:01.616Z,6.17
2018-12-01T20:08:30.761Z,5.93
2018-12-01T20:11:04.197Z,5.13
2018-12-01T20:13:35.310Z,5.50
2018-12-01T20:16:24.645Z,5.77
2018-12-01T20:18:54.371Z,5.87
2018-12-01T20:21:23.902Z,5.37
2018-12-01T20:23:53.135Z,5.20
2018-12-01T20:26:22.391Z,5.17
2018-12-01T20:28:51.871Z,5.23
2018-12-01T20:31:21.042Z,4.90
2018-12-01T20:33:51.528Z,5.87
2018-12-01T20:36:22.549Z,5.50
2018-12-01T20:39:25.412Z,5.80
2018-12-01T20:41:54.503Z,7.30
2018-12-01T20:44:23.741Z,7.27
2018-12-01T20:46:52.928Z,6.00
2018-12-01T20:49:22.281Z,5.40
2018-12-01T20:51:51.758Z,6.37
2018-12-01T20:54:38.176Z,5.97
2018-12-01T20:57:11.453Z,5.57
2018-12-01T20:59:40.710Z,5.37
2018-12-01T21:02:09.803Z,6.17
2018-12-01T21:04:39.055Z,6.17
2018-12-01T21:07:08.312Z,5.53
2018-12-01T21:09:37.414Z,6.27
2018-12-01T21:12:08.174Z,6.47
2018-12-01T21:14:37.531Z,6.30
2018-12-01T21:17:06.753Z,6.10
2018-12-01T21:19:35.958Z,6.27
2018-12-01T21:22:05.440Z,5.70
2018-12-01T21:24:34.651Z,7.07
2018-12-01T21:27:03.890Z,6.07
2018-12-01T21:29:33.162Z,6.07
2018-12-01T21:32:02.320Z,6.20
2018-12-01T21:34:38.441Z,5.53
2018-12-01T21:37:07.647Z,6.07
2018-12-01T21:39:36.865Z,5.90
2018-12-01T21:42:06.337Z,5.77
2018-12-01T21:44:35.571Z,5.87
2018-12-01T21:47:06.354Z,4.97
2018-12-01T21:49:35.642Z,5.73
2018-12-01T21:52:04.897Z,6.33
2018-12-01T21:54:34.104Z,4.97
2018-12-01T21:57:03.262Z,5.53
2018-12-01T21:59:32.817Z,6.17
2018-12-01T22:02:02.186Z,5.40
2018-12-01T22:04:31.698Z,5.27
2018-12-01T22:07:01.651Z,4.83
2018-12-01T22:09:30.812Z,5.13
2018-12-01T22:12:00.120Z,5.57
2018-12-01T22:14:29.412Z,4.33
2018-12-01T22:16:58.654Z,4.90
2018-12-01T22:19:27.857Z,4.70
2018-12-01T22:21:57.160Z,4.70
2018-12-01T22:24:26.321Z,4.73
2018-12-01T22:26:55.410Z,4.10
2018-12-01T22:29:24.500Z,5.27
2018-12-01T22:31:53.609Z,4.60
2018-12-01T22:34:22.788Z,4.57
2018-12-01T22:36:51.983Z,4.50
2018-12-01T22:39:21.179Z,5.10
2018-12-01T22:41:50.378Z,4.70
2018-12-01T22:44:19.832Z,4.00
2018-12-01T22:46:49.235Z,3.93
2018-12-01T22:49:18.401Z,3.67
2018-12-01T22:51:47.645Z,3.73
2018-12-01T22:54:16.784Z,3.67
2018-12-01T22:56:45.946Z,2.80
2018-12-01T22:59:15.060Z,3.23
2018-12-01T23:01:44.207Z,3.63
2018-12-01T23:04:13.427Z,4.03
2018-12-01T23:06:42.844Z,3.50
2018-12-01T23:09:12.061Z,3.70
2018-12-01T23:11:41.178Z,3.77
2018-12-01T23:14:10.498Z,3.50
2018-12-01T23:16:39.588Z,3.93
2018-12-01T23:19:08.755Z,3.43
2018-12-01T23:21:37.896Z,3.60
2018-12-01T23:24:07.012Z,3.17
2018-12-01T23:26:36.125Z,3.47
2018-12-01T23:29:05.921Z,2.70
2018-12-01T23:31:34.984Z,2.70
2018-12-01T23:34:04.134Z,2.20
2018-12-01T23:36:33.442Z,2.23
2018-12-01T23:39:05.674Z,2.53
2018-12-01T23:41:34.802Z,2.07
2018-12-01T23:44:03.942Z,1.90
2018-12-01T23:46:33.397Z,2.23
2018-12-01T23:49:02.570Z,2.37
2018-12-01T23:51:31.854Z,2.33
2018-12-01T23:54:01.160Z,2.30
2018-12-01T23:56:30.510Z,2.00
2018-12-01T23:58:59.676Z,1.93
